createdAt,value
2022-10-11T00:02:55.300Z,9.77
2022-10-11T00:08:01.759Z,8.90
2022-10-11T00:13:06.011Z,9.13
2022-10-11T00:18:10.933Z,10.40
2022-10-11T00:23:20.560Z,9.90
2022-10-11T00:28:24.402Z,9.60
2022-10-11T00:33:27.592Z,9.82
2022-10-11T00:38:34.440Z,9.75
2022-10-11T00:43:38.194Z,9.32
2022-10-11T00:48:46.932Z,9.68
2022-10-11T00:53:52.557Z,9.82
2022-10-11T00:58:59.536Z,8.88
2022-10-11T01:04:05.137Z,8.98
2022-10-11T01:09:12.416Z,9.30
2022-10-11T01:14:53.483Z,8.95
2022-10-11T01:20:31.125Z,9.20
2022-10-11T01:25:39.729Z,8.90
2022-10-11T01:30:48.301Z,9.23
2022-10-11T01:35:59.717Z,9.55
2022-10-11T01:41:09.144Z,9.38
2022-10-11T01:46:16.892Z,9.52
2022-10-11T01:51:21.860Z,9.80
2022-10-11T01:56:36.327Z,9.85
2022-10-11T02:01:55.832Z,10.70
2022-10-11T02:07:05.393Z,10.55
2022-10-11T02:12:12.394Z,10.07
2022-10-11T02:17:21.617Z,9.10
2022-10-11T02:22:30.349Z,8.63
2022-10-11T02:27:37.705Z,9.38
2022-10-11T02:32:45.760Z,8.95
2022-10-11T02:37:55.847Z,8.70
2022-10-11T02:43:04.945Z,8.70
2022-10-11T02:48:10.921Z,8.95
2022-10-11T02:53:15.074Z,10.02
2022-10-11T02:58:19.996Z,10.13
2022-10-11T03:03:24.383Z,10.48
2022-10-11T03:08:29.740Z,9.48
2022-10-11T03:13:32.014Z,10.13
2022-10-11T03:18:36.639Z,9.88
2022-10-11T03:23:38.879Z,8.63
2022-10-11T03:28:41.122Z,9.63
2022-10-11T03:33:45.010Z,9.75
2022-10-11T03:38:47.420Z,9.45
2022-10-11T03:43:49.640Z,8.80
2022-10-11T03:48:53.198Z,8.50
2022-10-11T03:53:55.395Z,8.80
2022-10-11T03:58:57.574Z,8.23
2022-10-11T04:04:01.139Z,9.23
2022-10-11T04:09:04.234Z,9.32
2022-10-11T04:14:06.390Z,8.25
2022-10-11T04:19:09.991Z,9.18
2022-10-11T04:24:12.986Z,6.75
2022-10-11T04:29:15.196Z,7.03
2022-10-11T04:34:19.228Z,8.32
2022-10-11T04:39:21.478Z,9.98
2022-10-11T04:44:23.911Z,10.30
2022-10-11T04:49:27.580Z,11.05
2022-10-11T04:54:29.908Z,12.23
2022-10-11T04:59:32.376Z,12.07
2022-10-11T05:04:38.640Z,11.85
2022-10-11T05:09:40.818Z,11.55
2022-10-11T05:14:43.078Z,13.55
2022-10-11T05:19:46.682Z,12.45
2022-10-11T05:24:48.900Z,11.25
2022-10-11T05:29:51.243Z,11.73
2022-10-11T05:34:54.871Z,10.35
2022-10-11T05:39:57.249Z,9.60
2022-10-11T05:44:59.725Z,9.38
2022-10-11T05:50:03.232Z,8.50
2022-10-11T05:55:05.799Z,9.18
2022-10-11T06:00:09.033Z,9.32
2022-10-11T06:05:13.035Z,9.10
2022-10-11T06:10:15.166Z,8.70
2022-10-11T06:15:17.466Z,7.55
2022-10-11T06:20:21.318Z,7.95
2022-10-11T06:25:23.518Z,7.82
2022-10-11T06:30:25.770Z,7.50
2022-10-11T06:35:29.334Z,7.78
2022-10-11T06:40:31.415Z,5.32
2022-10-11T06:45:33.525Z,6.53
2022-10-11T06:50:58.569Z,5.85
2022-10-11T06:56:04.512Z,6.07
2022-10-11T07:01:08.801Z,5.35
2022-10-11T07:06:14.185Z,5.30
2022-10-11T07:11:18.359Z,5.25
2022-10-11T07:16:21.553Z,10.48
2022-10-11T07:21:25.400Z,14.48
2022-10-11T07:26:27.592Z,14.30
2022-10-11T07:31:29.744Z,14.18
2022-10-11T07:36:33.530Z,15.48
2022-10-11T07:41:38.164Z,17.50
2022-10-11T07:46:42.911Z,8.52
2022-10-11T07:51:46.370Z,12.00
2022-10-11T07:56:51.282Z,10.38
2022-10-11T08:01:53.462Z,14.75
2022-10-11T08:06:57.016Z,11.38
2022-10-11T08:11:59.195Z,11.48
2022-10-11T08:17:02.468Z,10.40
2022-10-11T08:22:06.135Z,7.88
2022-10-11T08:27:08.216Z,7.65
2022-10-11T08:32:12.216Z,7.38
2022-10-11T08:37:15.735Z,8.00
2022-10-11T08:42:25.708Z,6.90
2022-10-11T08:47:31.798Z,7.93
2022-10-11T08:52:46.033Z,6.60
2022-10-11T08:57:53.201Z,6.18
2022-10-11T09:03:09.238Z,7.65
2022-10-11T09:08:22.491Z,7.03
2022-10-11T09:13:41.808Z,6.80
2022-10-11T09:19:10.852Z,7.43
2022-10-11T09:24:45.836Z,6.03
2022-10-11T09:29:58.402Z,7.30
2022-10-11T09:35:11.307Z,7.90
2022-10-11T09:40:36.345Z,7.13
2022-10-11T09:45:38.834Z,7.43
2022-10-11T09:50:40.993Z,7.38
2022-10-11T09:55:52.324Z,8.10
2022-10-11T10:01:07.648Z,7.15
2022-10-11T10:06:16.488Z,6.80
2022-10-11T10:11:21.060Z,6.13
2022-10-11T10:16:25.944Z,6.80
2022-10-11T10:21:31.134Z,5.93
2022-10-11T10:26:35.031Z,6.53
2022-10-11T10:32:08.851Z,6.00
2022-10-11T10:37:09.063Z,6.30
2022-10-11T10:42:17.636Z,6.43
2022-10-11T10:47:30.217Z,6.07
2022-10-11T10:52:48.090Z,6.07
2022-10-11T10:58:05.339Z,5.57
2022-10-11T11:03:13.459Z,5.63
2022-10-11T11:08:23.843Z,5.25
2022-10-11T11:13:42.493Z,5.40
2022-10-11T11:18:54.631Z,4.18
2022-10-11T11:24:06.345Z,4.78
2022-10-11T11:29:20.107Z,4.90
2022-10-11T11:34:25.116Z,5.00
2022-10-11T11:39:31.774Z,4.50
2022-10-11T11:44:39.652Z,4.60
2022-10-11T11:49:47.770Z,4.63
2022-10-11T11:54:58.988Z,4.47
2022-10-11T12:00:08.276Z,4.43
2022-10-11T12:05:11.232Z,4.35
2022-10-11T12:10:25.119Z,4.30
2022-10-11T12:15:28.654Z,4.28
2022-10-11T12:20:32.737Z,4.10
2022-10-11T12:25:44.209Z,4.22
2022-10-11T12:31:04.522Z,4.18
2022-10-11T12:36:32.720Z,3.78
2022-10-11T12:41:51.693Z,3.60
2022-10-11T12:47:28.429Z,3.33
2022-10-11T12:52:41.093Z,3.55
2022-10-11T12:58:20.234Z,3.90
2022-10-11T13:03:32.791Z,3.60
2022-10-11T13:08:37.901Z,3.80
2022-10-11T13:13:43.728Z,4.60
2022-10-11T13:18:49.219Z,4.00
2022-10-11T13:23:55.300Z,3.70
2022-10-11T13:28:57.862Z,3.78
2022-10-11T13:34:01.390Z,3.67
2022-10-11T13:39:03.706Z,4.18
2022-10-11T13:44:06.101Z,4.13
2022-10-11T13:49:30.024Z,3.50
2022-10-11T13:55:09.103Z,3.85
2022-10-11T14:00:23.703Z,3.90
2022-10-11T14:05:32.576Z,3.80
2022-10-11T14:10:35.349Z,3.70
2022-10-11T14:15:39.140Z,4.35
2022-10-11T14:20:45.157Z,3.90
2022-10-11T14:25:47.274Z,3.90
2022-10-11T14:30:49.417Z,4.40
2022-10-11T14:35:53.012Z,4.20
2022-10-11T14:40:55.131Z,4.32
2022-10-11T14:45:57.234Z,4.50
2022-10-11T14:51:04.034Z,4.45
2022-10-11T14:56:06.947Z,4.25
2022-10-11T15:01:12.848Z,3.97
2022-10-11T15:06:20.551Z,4.40
2022-10-11T15:11:24.365Z,4.43
2022-10-11T15:16:26.985Z,4.50
2022-10-11T15:21:31.039Z,4.57
2022-10-11T15:26:34.024Z,5.47
2022-10-11T15:31:36.125Z,4.10
2022-10-11T15:36:40.046Z,4.20
2022-10-11T15:41:42.158Z,4.40
2022-10-11T15:46:44.414Z,4.32
2022-10-11T15:51:47.943Z,4.10
2022-10-11T15:56:50.067Z,4.53
2022-10-11T16:01:52.227Z,5.80
2022-10-11T16:06:55.753Z,5.00
2022-10-11T16:11:57.876Z,4.50
2022-10-11T16:17:02.874Z,4.88
2022-10-11T16:22:06.350Z,4.30
2022-10-11T16:27:08.529Z,4.85
2022-10-11T16:32:10.730Z,5.72
2022-10-11T16:37:14.507Z,5.85
2022-10-11T16:42:16.761Z,6.35
2022-10-11T16:47:19.469Z,7.70
2022-10-11T16:52:22.987Z,7.95
2022-10-11T16:57:25.397Z,8.67
2022-10-11T17:02:32.335Z,8.98
2022-10-11T17:07:36.388Z,8.38
2022-10-11T17:12:38.820Z,8.70
2022-10-11T17:17:41.005Z,9.57
2022-10-11T17:22:44.903Z,9.40
2022-10-11T17:27:47.027Z,9.07
2022-10-11T17:32:49.644Z,9.48
2022-10-11T17:37:53.440Z,10.30
2022-10-11T17:42:55.982Z,10.35
2022-10-11T17:48:00.936Z,10.10
2022-10-11T17:53:04.843Z,11.88
2022-10-11T17:58:07.348Z,12.15
2022-10-11T18:03:10.257Z,12.60
2022-10-11T18:08:15.562Z,11.48
2022-10-11T18:13:18.873Z,11.80
2022-10-11T18:18:21.560Z,13.20
2022-10-11T18:23:25.835Z,13.40
2022-10-11T18:28:28.074Z,14.88
2022-10-11T18:33:30.452Z,16.10
2022-10-11T18:38:35.802Z,15.50
2022-10-11T18:43:38.867Z,14.38
2022-10-11T18:48:42.664Z,13.75
2022-10-11T18:53:47.392Z,15.63
2022-10-11T18:58:51.140Z,13.27
2022-10-11T19:03:56.632Z,21.70
2022-10-11T19:09:03.700Z,19.25
2022-10-11T19:14:08.799Z,18.52
2022-10-11T19:19:15.133Z,17.60
2022-10-11T19:24:20.365Z,18.20
2022-10-11T19:29:26.672Z,15.13
2022-10-11T19:34:31.501Z,16.80
2022-10-11T19:39:35.327Z,16.80
2022-10-11T19:44:39.673Z,16.17
2022-10-11T19:49:42.309Z,15.75
2022-10-11T19:54:47.446Z,16.10
2022-10-11T19:59:51.173Z,15.35
2022-10-11T20:04:57.263Z,18.25
2022-10-11T20:10:06.345Z,17.50
2022-10-11T20:15:13.237Z,17.30
2022-10-11T20:20:17.714Z,17.20
2022-10-11T20:25:24.508Z,17.30
2022-10-11T20:30:29.560Z,14.63
2022-10-11T20:35:33.547Z,14.18
2022-10-11T20:40:42.349Z,16.23
2022-10-11T20:45:45.825Z,15.20
2022-10-11T20:50:48.775Z,17.58
2022-10-11T20:55:55.810Z,17.50
2022-10-11T21:01:00.532Z,17.83
2022-10-11T21:06:04.576Z,16.85
2022-10-11T21:11:13.979Z,14.90
2022-10-11T21:16:18.676Z,14.05
2022-10-11T21:21:24.192Z,13.82
2022-10-11T21:26:31.656Z,13.32
2022-10-11T21:31:37.419Z,12.70
2022-10-11T21:36:43.171Z,12.90
2022-10-11T21:41:50.691Z,12.68
2022-10-11T21:47:06.745Z,12.80
2022-10-11T21:52:13.274Z,11.88
2022-10-11T21:57:19.511Z,12.00
2022-10-11T22:02:24.827Z,12.05
2022-10-11T22:07:30.746Z,11.52
2022-10-11T22:12:35.617Z,11.35
2022-10-11T22:17:38.809Z,10.98
2022-10-11T22:22:42.473Z,10.40
2022-10-11T22:27:49.889Z,12.15
2022-10-11T22:32:55.866Z,11.75
2022-10-11T22:37:59.448Z,11.45
2022-10-11T22:43:04.160Z,11.20
2022-10-11T22:48:07.512Z,12.07
2022-10-11T22:53:13.499Z,12.55
2022-10-11T22:58:19.255Z,12.27
2022-10-11T23:03:25.293Z,11.02
2022-10-11T23:08:30.485Z,11.77
2022-10-11T23:13:35.076Z,10.90
2022-10-11T23:18:41.014Z,10.38
2022-10-11T23:23:45.847Z,11.10
2022-10-11T23:28:55.217Z,12.30
2022-10-11T23:33:59.416Z,11.95
2022-10-11T23:39:04.748Z,11.40
2022-10-11T23:44:11.022Z,12.18
2022-10-11T23:49:17.208Z,11.75
2022-10-11T23:54:21.104Z,13.15
2022-10-11T23:59:32.017Z,13.88
